createdAt,value
2022-08-01T04:10:30.830Z,21.50
2022-08-01T04:15:32.918Z,7.07
2022-08-01T04:20:34.939Z,7.05
2022-08-01T04:25:40.716Z,6.18
2022-08-01T04:30:45.963Z,7.70
2022-08-01T04:36:02.347Z,7.90
2022-08-01T04:41:09.108Z,8.95
2022-08-01T04:46:13.219Z,7.38
2022-08-01T04:51:22.850Z,7.28
2022-08-01T04:56:24.885Z,6.15
2022-08-01T05:01:26.851Z,7.90
2022-08-01T05:06:28.851Z,8.25
2022-08-01T05:11:31.683Z,6.65
2022-08-01T05:16:33.624Z,9.48
2022-08-01T05:21:36.345Z,6.40
2022-08-01T05:26:38.324Z,6.53
2022-08-01T05:31:40.945Z,6.55
2022-08-01T05:36:44.364Z,6.13
2022-08-01T05:41:46.599Z,6.80
2022-08-01T05:46:48.629Z,5.95
2022-08-01T05:51:50.574Z,6.90
2022-08-01T05:56:52.587Z,7.15
2022-08-01T06:01:54.742Z,9.52
2022-08-01T06:06:56.850Z,7.20
2022-08-01T06:11:59.106Z,6.00
2022-08-01T06:17:01.137Z,6.05
2022-08-01T06:22:03.704Z,5.45
2022-08-01T06:27:06.076Z,8.25
2022-08-01T06:32:26.807Z,6.25
2022-08-01T06:37:33.349Z,7.68
2022-08-01T06:42:38.877Z,5.88
2022-08-01T06:47:43.293Z,5.43
2022-08-01T06:52:45.450Z,5.15
2022-08-01T06:57:53.450Z,7.28
2022-08-01T07:02:59.592Z,8.40
2022-08-01T07:08:02.041Z,5.20
2022-08-01T07:13:03.967Z,6.07
2022-08-01T07:18:05.975Z,5.13
2022-08-01T07:23:08.130Z,4.72
2022-08-01T07:28:10.221Z,6.03
2022-08-01T07:33:12.824Z,5.10
2022-08-01T07:38:17.808Z,4.90
2022-08-01T07:43:19.732Z,5.50
2022-08-01T07:48:24.914Z,5.22
2022-08-01T07:53:27.855Z,7.05
2022-08-01T07:58:30.595Z,7.40
2022-08-01T08:03:32.537Z,7.43
2022-08-01T08:08:35.636Z,6.22
2022-08-01T08:13:37.679Z,5.65
2022-08-01T08:18:39.845Z,7.95
2022-08-01T08:24:00.008Z,4.93
2022-08-01T08:29:01.981Z,4.68
2022-08-01T08:34:04.012Z,6.00
2022-08-01T08:39:06.724Z,4.45
2022-08-01T08:44:11.896Z,6.72
2022-08-01T08:49:22.325Z,4.43
2022-08-01T08:54:31.116Z,4.35
2022-08-01T08:59:39.883Z,3.90
2022-08-01T09:04:42.510Z,4.90
2022-08-01T09:09:44.660Z,2.90
2022-08-01T09:14:51.003Z,2.50
2022-08-01T09:19:57.750Z,4.88
2022-08-01T09:25:07.025Z,2.58
2022-08-01T09:30:13.227Z,5.70
2022-08-01T09:35:43.408Z,3.45
2022-08-01T09:40:58.069Z,4.47
2022-08-01T09:46:06.415Z,4.10
2022-08-01T09:52:00.190Z,3.47
2022-08-01T09:57:18.356Z,4.40
2022-08-01T10:02:31.447Z,4.78
2022-08-01T10:07:43.587Z,3.10
2022-08-01T10:12:47.734Z,3.75
2022-08-01T10:18:00.338Z,3.33
2022-08-01T10:23:06.386Z,3.50
2022-08-01T10:28:23.893Z,4.47
2022-08-01T10:33:51.865Z,3.47
2022-08-01T10:38:48.589Z,3.85
2022-08-01T10:43:50.671Z,3.72
2022-08-01T10:49:03.512Z,2.55
2022-08-01T10:54:09.755Z,4.90
2022-08-01T10:59:58.939Z,4.60
2022-08-01T11:05:20.755Z,2.97
2022-08-01T11:10:38.334Z,2.88
2022-08-01T11:15:50.572Z,3.90
2022-08-01T11:21:59.190Z,3.35
2022-08-01T11:26:30.111Z,3.20
2022-08-01T11:31:37.934Z,2.63
2022-08-01T11:36:58.395Z,4.68
2022-08-01T11:42:21.391Z,2.20
2022-08-01T11:47:50.335Z,4.85
2022-08-01T11:53:06.668Z,3.70
2022-08-01T11:58:22.429Z,4.25
2022-08-01T12:03:34.151Z,4.43
2022-08-01T12:08:37.590Z,3.17
2022-08-01T12:13:42.868Z,4.38
2022-08-01T12:18:45.246Z,2.58
2022-08-01T12:24:01.369Z,2.20
2022-08-01T12:29:03.544Z,2.53
2022-08-01T12:34:31.558Z,4.20
2022-08-01T12:39:34.926Z,5.57
2022-08-01T12:44:37.801Z,3.42
2022-08-01T12:49:42.523Z,3.28
2022-08-01T12:55:11.651Z,4.65
2022-08-01T13:00:24.938Z,7.18
2022-08-01T13:05:27.883Z,4.05
2022-08-01T13:10:31.822Z,2.03
2022-08-01T13:15:41.899Z,3.97
2022-08-01T13:20:44.391Z,2.97
2022-08-01T13:25:57.169Z,4.65
2022-08-01T13:31:08.963Z,7.30
2022-08-01T13:36:12.412Z,2.45
2022-08-01T13:41:24.676Z,2.35
2022-08-01T13:46:30.268Z,2.75
2022-08-01T13:51:33.459Z,3.17
2022-08-01T13:56:35.898Z,3.20
2022-08-01T14:01:38.858Z,2.50
2022-08-01T14:06:42.017Z,3.58
2022-08-01T14:11:45.925Z,4.03
2022-08-01T14:16:48.766Z,4.13
2022-08-01T14:21:53.627Z,2.45
2022-08-01T14:26:56.584Z,2.58
2022-08-01T14:31:59.963Z,4.32
2022-08-01T14:37:06.616Z,2.35
2022-08-01T14:42:10.398Z,3.92
2022-08-01T14:47:16.107Z,2.90
2022-08-01T14:52:28.094Z,3.47
2022-08-01T14:57:37.829Z,2.22
2022-08-01T15:02:40.897Z,2.25
2022-08-01T15:07:52.224Z,3.55
2022-08-01T15:12:56.723Z,2.72
2022-08-01T15:17:59.374Z,2.92
2022-08-01T15:23:01.782Z,3.53
2022-08-01T15:28:04.467Z,2.33
2022-08-01T15:33:07.305Z,3.30
2022-08-01T15:38:09.579Z,2.83
2022-08-01T15:43:15.125Z,2.92
2022-08-01T15:48:18.387Z,3.10
2022-08-01T15:53:20.641Z,7.00
2022-08-01T15:58:23.451Z,1.65
2022-08-01T16:03:25.742Z,2.58
2022-08-01T16:08:27.897Z,3.83
2022-08-01T16:13:30.135Z,3.10
2022-08-01T16:18:32.316Z,3.10
2022-08-01T16:23:34.510Z,2.72
2022-08-01T16:28:37.495Z,2.38
2022-08-01T16:33:41.327Z,1.85
2022-08-01T16:38:56.602Z,6.53
2022-08-01T16:44:01.998Z,3.22
2022-08-01T16:50:28.022Z,2.78
2022-08-01T16:55:49.670Z,2.90
2022-08-01T17:00:56.289Z,3.75
2022-08-01T17:05:59.320Z,4.05
2022-08-01T17:11:01.575Z,3.90
2022-08-01T17:16:12.458Z,4.47
2022-08-01T17:21:15.129Z,5.72
2022-08-01T17:26:17.401Z,4.68
2022-08-01T17:31:19.789Z,2.30
2022-08-01T17:36:22.290Z,2.28
2022-08-01T17:41:24.557Z,3.25
2022-08-01T17:46:26.946Z,3.58
2022-08-01T17:51:30.524Z,3.25
2022-08-01T17:56:37.933Z,3.42
2022-08-01T18:01:45.285Z,3.42
2022-08-01T18:06:58.446Z,3.58
2022-08-01T18:12:03.407Z,2.92
2022-08-01T18:17:06.951Z,5.07
2022-08-01T18:22:28.810Z,7.15
2022-08-01T18:28:25.815Z,4.22
2022-08-01T18:32:57.778Z,4.00
2022-08-01T18:38:00.126Z,3.47
2022-08-01T18:43:04.393Z,3.05
2022-08-01T18:48:06.870Z,5.28
2022-08-01T18:53:09.144Z,4.93
2022-08-01T18:58:11.366Z,6.05
2022-08-01T19:03:15.437Z,4.00
2022-08-01T19:08:17.626Z,4.35
2022-08-01T19:13:20.707Z,5.07
2022-08-01T19:18:24.674Z,5.50
2022-08-01T19:23:45.840Z,3.88
2022-08-01T19:29:01.143Z,3.63
2022-08-01T19:34:07.728Z,3.95
2022-08-01T19:39:10.272Z,3.80
2022-08-01T19:44:16.560Z,4.85
2022-08-01T19:49:24.186Z,5.03
2022-08-01T19:54:33.652Z,4.57
2022-08-01T19:59:36.866Z,4.57
2022-08-01T20:04:38.801Z,4.97
2022-08-01T20:09:42.373Z,4.50
2022-08-01T20:14:44.913Z,4.03
2022-08-01T20:19:48.035Z,4.70
2022-08-01T20:24:58.253Z,2.80
